Time;durP1;ratioP1;P1;durP2;ratioP2;P2;SDS_P1;SDS_P2;PMS_P1;PMS_P2;Temp;Humidity;BMP_temperature;BMP_pressure;BME280_temperature;BME280_humidity;BME280_pressure;Samples;Min_cycle;Max_cycle;Signal;HPM_P1;HPM_P2
2023/12/18 00:01:44;;;;;;;19.35;2.72;;;;;;;8.62;100.00;102080.84;5008162;28;20022;-96
2023/12/18 00:04:11;;;;;;;9.20;1.73;;;;;;;8.59;100.00;102073.19;5002561;28;20076;-96
2023/12/18 00:06:39;;;;;;;12.18;2.63;;;;;;;8.52;100.00;102075.88;5037193;28;20060;-96
2023/12/18 00:09:05;;;;;;;11.20;1.83;;;;;;;8.56;100.00;102077.53;5018321;28;20022;-96
2023/12/18 00:11:31;;;;;;;18.70;2.03;;;;;;;8.60;100.00;102082.59;5318286;23;20061;-96
2023/12/18 00:13:56;;;;;;;12.45;2.28;;;;;;;8.55;100.00;102075.81;5009234;28;20022;-96
2023/12/18 00:16:21;;;;;;;9.52;1.92;;;;;;;8.49;100.00;102060.53;5035191;28;20026;-96
2023/12/18 00:18:47;;;;;;;11.75;1.63;;;;;;;8.57;100.00;102066.34;5036620;28;20018;-96
2023/12/18 00:21:13;;;;;;;13.10;2.55;;;;;;;8.70;100.00;102068.63;5034377;28;20080;-96
2023/12/18 00:23:39;;;;;;;11.50;1.77;;;;;;;8.66;100.00;102067.03;5011886;28;20026;-96
2023/12/18 00:26:04;;;;;;;9.82;1.90;;;;;;;8.57;100.00;102057.78;5025224;28;20106;-96
2023/12/18 00:28:30;;;;;;;11.95;1.30;;;;;;;8.57;100.00;102057.78;5030463;28;20021;-96
2023/12/18 00:30:55;;;;;;;19.60;2.47;;;;;;;8.67;100.00;102060.97;5040109;28;20022;-96
2023/12/18 00:33:21;;;;;;;8.88;1.85;;;;;;;8.64;100.00;102059.31;5021439;28;20037;-96
2023/12/18 00:44:12;;;;;;;12.63;2.20;;;;;;;8.47;100.00;102057.13;5036333;23;20030;-96
2023/12/18 00:46:38;;;;;;;18.73;1.67;;;;;;;8.52;100.00;102054.47;5011103;28;20030;-96
2023/12/18 00:49:03;;;;;;;8.82;1.45;;;;;;;8.49;100.00;102054.53;5011309;28;20049;-96
2023/12/18 00:51:29;;;;;;;16.60;1.95;;;;;;;8.53;100.00;102051.88;5011064;28;20022;-96
2023/12/18 00:53:54;;;;;;;7.45;1.48;;;;;;;8.68;100.00;102057.50;4983123;28;20033;-96
2023/12/18 00:56:20;;;;;;;12.70;1.88;;;;;;;8.65;100.00;102045.56;4991068;28;20046;-96
2023/12/18 00:58:45;;;;;;;7.90;1.83;;;;;;;8.73;100.00;102053.09;4987271;28;20026;-96
2023/12/18 01:01:11;;;;;;;12.80;2.10;;;;;;;8.70;100.00;102045.44;4984578;28;20025;-96
2023/12/18 01:03:37;;;;;;;9.23;1.60;;;;;;;8.88;100.00;102052.75;4983426;28;20031;-96
2023/12/18 01:06:05;;;;;;;10.98;2.05;;;;;;;8.91;100.00;102036.38;5001312;28;20644;-96
2023/12/18 01:08:30;;;;;;;20.30;2.95;;;;;;;8.87;100.00;102039.91;4984566;28;20030;-96
2023/12/18 01:10:58;;;;;;;12.57;2.08;;;;;;;8.84;100.00;102027.94;5010378;28;20030;-96
2023/12/18 01:13:24;;;;;;;7.05;1.90;;;;;;;8.90;100.00;102024.38;4997701;28;20031;-96
2023/12/18 01:15:53;;;;;;;18.00;2.67;;;;;;;8.82;100.00;102029.72;4982569;28;20052;-96
2023/12/18 01:18:20;;;;;;;6.72;1.65;;;;;;;8.93;100.00;102030.28;4994369;28;20037;-96
2023/12/18 01:21:06;;;;;;;17.02;2.63;;;;;;;8.89;100.00;102013.22;4994385;28;20044;-96
2023/12/18 01:23:31;;;;;;;13.77;2.05;;;;;;;8.92;100.00;102015.72;4998445;28;20389;-95
2023/12/18 01:25:57;;;;;;;15.20;2.88;;;;;;;8.85;100.00;102005.63;4986756;28;20037;-96
2023/12/18 01:28:23;;;;;;;11.30;2.00;;;;;;;8.91;100.00;102016.59;4986990;28;20158;-96
2023/12/18 01:30:48;;;;;;;14.18;2.53;;;;;;;8.91;100.00;102010.63;4984876;28;20034;-96
2023/12/18 01:33:14;;;;;;;10.32;1.75;;;;;;;9.04;100.00;102029.19;4990750;28;20023;-96
2023/12/18 01:35:41;;;;;;;7.28;1.60;;;;;;;9.04;100.00;102016.31;5008862;28;20018;-96
2023/12/18 01:38:09;;;;;;;13.15;2.33;;;;;;;9.04;100.00;102016.31;4992767;28;20049;-96
2023/12/18 01:43:28;;;;;;;11.50;2.00;;;;;;;9.06;100.00;102017.09;5077213;23;20045;-96
2023/12/18 01:46:01;;;;;;;11.95;1.63;;;;;;;9.17;100.00;102008.22;5013267;28;20086;-96
2023/12/18 01:48:28;;;;;;;12.48;2.25;;;;;;;9.08;100.00;102005.03;4990273;28;20473;-96
2023/12/18 01:51:02;;;;;;;16.55;2.35;;;;;;;9.14;100.00;101997.13;4987539;28;20041;-96
2023/12/18 01:53:39;;;;;;;10.20;2.53;;;;;;;9.20;100.00;101997.00;4991612;28;20058;-96
2023/12/18 01:56:05;;;;;;;8.98;1.40;;;;;;;9.15;100.00;101996.28;4984570;28;20014;-96
2023/12/18 01:58:37;;;;;;;15.40;2.15;;;;;;;9.13;100.00;101998.88;4995648;28;20105;-96
2023/12/18 02:01:04;;;;;;;11.27;1.75;;;;;;;9.21;100.00;102002.09;5016152;28;20093;-96
2023/12/18 02:03:30;;;;;;;15.18;1.85;;;;;;;9.28;100.00;102005.34;4996841;28;20065;-96
2023/12/18 02:05:59;;;;;;;5.38;1.60;;;;;;;9.24;100.00;101990.84;4995749;28;20030;-96
2023/12/18 02:08:27;;;;;;;19.52;2.00;;;;;;;9.19;100.00;101995.28;5008767;28;20038;-96
2023/12/18 02:10:53;;;;;;;9.85;2.25;;;;;;;9.20;100.00;101987.53;5009790;28;20132;-96
2023/12/18 02:13:19;;;;;;;13.63;2.58;;;;;;;9.21;100.00;101993.50;5007945;28;20472;-96
2023/12/18 02:15:45;;;;;;;9.57;1.83;;;;;;;9.40;100.00;101999.03;5006929;28;20098;-96
2023/12/18 02:18:11;;;;;;;13.65;1.77;;;;;;;9.32;100.00;102006.97;4976320;28;20077;-96
2023/12/18 02:20:36;;;;;;;11.38;2.00;;;;;;;9.22;100.00;101990.06;4969684;28;20031;-96
2023/12/18 02:23:02;;;;;;;14.02;2.20;;;;;;;9.24;100.00;101995.16;4995316;28;20033;-97
2023/12/18 02:25:28;;;;;;;10.98;1.52;;;;;;;9.31;100.00;102000.09;5009004;28;20507;-96
2023/12/18 02:27:54;;;;;;;11.25;2.17;;;;;;;9.32;100.00;101990.66;5011034;28;20045;-96
2023/12/18 02:30:24;;;;;;;11.30;1.55;;;;;;;9.31;100.00;101994.94;5010396;28;20411;-96
2023/12/18 02:32:50;;;;;;;7.57;1.35;;;;;;;9.20;100.00;101981.53;5009576;28;20050;-96
2023/12/18 02:35:16;;;;;;;16.15;2.80;;;;;;;9.22;100.00;101990.06;5005353;28;20064;-96
2023/12/18 02:37:41;;;;;;;11.02;1.88;;;;;;;9.23;100.00;101991.75;4992976;28;20026;-96
2023/12/18 02:40:07;;;;;;;7.53;1.67;;;;;;;9.25;100.00;101984.81;4984286;28;20037;-96
2023/12/18 02:42:32;;;;;;;10.90;2.45;;;;;;;9.23;100.00;101983.19;4984990;28;20101;-96
2023/12/18 02:45:00;;;;;;;12.20;2.78;;;;;;;9.20;100.00;101990.09;4980865;28;20033;-96
2023/12/18 02:47:25;;;;;;;11.25;3.17;;;;;;;9.12;100.00;101978.28;4984792;28;20023;-96
2023/12/18 02:49:51;;;;;;;9.82;2.50;;;;;;;9.12;100.00;101989.47;4983014;28;20129;-96
2023/12/18 02:52:17;;;;;;;7.40;1.05;;;;;;;9.14;100.00;101986.84;4982955;28;20117;-96
2023/12/18 02:54:42;;;;;;;10.20;1.52;;;;;;;9.05;100.00;101971.66;4970817;28;20038;-96
2023/12/18 02:57:13;;;;;;;10.27;1.17;;;;;;;8.94;100.00;101971.91;4987887;28;20048;-96
2023/12/18 02:59:58;;;;;;;13.50;1.95;;;;;;;8.94;100.00;101972.75;5009450;28;20025;-96
2023/12/18 03:02:32;;;;;;;7.93;1.63;;;;;;;8.97;100.00;101964.09;5025383;28;20010;-96
2023/12/18 03:04:58;;;;;;;9.13;1.27;;;;;;;9.00;100.00;101964.88;5008547;28;20041;-96
2023/12/18 03:07:24;;;;;;;11.93;1.45;;;;;;;8.96;100.00;101958.09;5004077;28;20030;-96
2023/12/18 03:09:49;;;;;;;8.48;1.55;;;;;;;9.00;100.00;101964.03;5003790;28;20026;-96
2023/12/18 03:12:15;;;;;;;7.65;1.40;;;;;;;8.85;100.00;101965.28;5006859;28;20029;-96
2023/12/18 03:14:40;;;;;;;11.43;1.80;;;;;;;8.88;100.00;101960.03;5004880;28;20085;-96
2023/12/18 03:17:06;;;;;;;10.55;1.55;;;;;;;8.90;100.00;101948.00;5007070;28;20076;-96
2023/12/18 03:19:34;;;;;;;16.08;2.13;;;;;;;8.88;100.00;101954.06;5044199;23;20042;-96
2023/12/18 03:22:00;;;;;;;12.10;2.05;;;;;;;8.95;100.00;101950.44;5025441;28;20045;-96
2023/12/18 03:24:25;;;;;;;8.35;1.63;;;;;;;8.90;100.00;101953.13;5007566;28;20027;-96
2023/12/18 03:26:51;;;;;;;16.15;2.30;;;;;;;8.76;100.00;101939.78;4988216;28;20058;-96
2023/12/18 03:29:16;;;;;;;6.30;1.02;;;;;;;8.80;100.00;101946.50;4984924;28;20026;-96
2023/12/18 03:31:41;;;;;;;12.48;1.67;;;;;;;8.85;100.00;101943.81;4985981;28;20110;-96
2023/12/18 03:34:07;;;;;;;9.13;1.60;;;;;;;8.83;100.00;101945.59;4985761;28;20089;-96
2023/12/18 03:36:33;;;;;;;9.55;1.65;;;;;;;8.84;100.00;101942.97;4993260;28;20082;-96
2023/12/18 03:38:58;;;;;;;10.30;2.38;;;;;;;8.92;100.00;101940.19;4987434;28;20080;-96
2023/12/18 03:41:24;;;;;;;7.03;2.17;;;;;;;9.06;100.00;101937.25;4998976;28;20094;-96
2023/12/18 03:43:54;;;;;;;14.60;3.83;;;;;;;8.90;100.00;101937.69;4997653;28;20061;-96
2023/12/18 03:46:20;;;;;;;9.60;1.42;;;;;;;8.93;100.00;101931.59;5014664;28;20117;-96
2023/12/18 03:48:46;;;;;;;10.93;2.08;;;;;;;9.01;100.00;101939.97;5010740;28;20034;-96
2023/12/18 03:51:11;;;;;;;9.45;1.00;;;;;;;8.95;100.00;101935.84;5006878;28;20041;-96
2023/12/18 03:53:37;;;;;;;7.70;1.40;;;;;;;8.90;100.00;101937.69;5006553;28;20080;-96
2023/12/18 03:56:04;;;;;;;12.20;1.50;;;;;;;8.86;100.00;101933.50;5008209;28;20101;-96
2023/12/18 03:58:30;;;;;;;9.23;2.03;;;;;;;8.93;100.00;101922.16;5006259;28;20026;-95
2023/12/18 04:00:55;;;;;;;6.53;1.02;;;;;;;8.89;100.00;101915.38;5007934;28;20022;-96
2023/12/18 04:03:21;;;;;;;7.03;1.55;;;;;;;8.89;100.00;101930.81;5008163;28;20022;-96
2023/12/18 04:05:46;;;;;;;11.55;1.50;;;;;;;8.81;100.00;101914.75;5009976;28;20361;-96
2023/12/18 04:08:12;;;;;;;13.93;1.52;;;;;;;8.83;100.00;101920.72;5005436;28;20026;-96
2023/12/18 04:10:38;;;;;;;10.95;1.88;;;;;;;8.78;100.00;101901.97;5005042;28;20035;-96
2023/12/18 04:13:03;;;;;;;12.00;2.42;;;;;;;8.85;100.00;101897.47;5004880;28;20032;-96
2023/12/18 04:15:29;;;;;;;14.57;1.83;;;;;;;8.89;100.00;101894.78;5005181;28;20042;-96
2023/12/18 04:17:55;;;;;;;15.63;2.13;;;;;;;8.90;100.00;101891.34;5006581;28;20053;-96
2023/12/18 04:20:22;;;;;;;11.13;1.60;;;;;;;8.90;100.00;101883.63;5016094;28;20037;-96
2023/12/18 04:22:49;;;;;;;11.25;1.17;;;;;;;8.97;100.00;101892.88;5000466;28;20037;-96
2023/12/18 04:25:14;;;;;;;9.32;1.73;;;;;;;9.02;100.00;101881.56;5011245;28;20033;-95
2023/12/18 04:27:41;;;;;;;13.13;1.80;;;;;;;9.05;100.00;101889.22;5008580;28;20026;-95
2023/12/18 04:30:09;;;;;;;10.07;1.58;;;;;;;9.02;100.00;101884.97;5002951;28;20022;-96
2023/12/18 04:32:35;;;;;;;11.85;1.55;;;;;;;9.05;100.00;101889.22;5003904;28;20045;-96
2023/12/18 04:35:08;;;;;;;10.95;1.90;;;;;;;9.17;100.00;101888.88;5002249;28;20178;-96
2023/12/18 04:37:34;;;;;;;10.40;1.95;;;;;;;9.14;100.00;101896.69;5010855;28;20072;-96
2023/12/18 04:40:06;;;;;;;13.32;1.67;;;;;;;9.12;100.00;101896.75;5008493;28;20053;-96
2023/12/18 04:42:36;;;;;;;4.60;1.40;;;;;;;9.19;100.00;101892.25;5035679;28;20101;-96
2023/12/18 04:45:08;;;;;;;5.85;1.77;;;;;;;9.20;100.00;101896.53;5017963;28;20030;-96
2023/12/18 04:50:08;;;;;;;9.82;1.30;;;;;;;9.11;100.00;101889.88;5030919;28;20038;-96
2023/12/18 05:00:30;;;;;;;12.60;1.75;;;;;;;9.25;100.00;101892.06;5935563;23;20045;-96
2023/12/18 06:05:02;;;;;;;9.27;1.92;;;;;;;9.37;100.00;101862.53;5936640;23;20050;-96
2023/12/18 06:07:31;;;;;;;10.05;1.55;;;;;;;9.42;100.00;101855.50;5029672;28;20055;-96
2023/12/18 06:09:56;;;;;;;6.57;1.23;;;;;;;9.50;100.00;101844.97;4993566;28;20033;-96
2023/12/18 06:12:21;;;;;;;15.85;2.03;;;;;;;9.47;100.00;101852.81;4996603;28;20030;-96
2023/12/18 06:14:48;;;;;;;8.93;1.60;;;;;;;9.47;100.00;101855.38;4996012;28;20024;-96
2023/12/18 06:17:16;;;;;;;13.18;2.40;;;;;;;9.40;100.00;101847.81;4997312;28;20058;-96
2023/12/18 06:20:05;;;;;;;13.27;1.38;;;;;;;9.39;100.00;101847.88;5011092;28;20038;-96
2023/12/18 06:22:55;;;;;;;10.68;2.05;;;;;;;9.40;100.00;101849.56;5002721;28;20033;-96
2023/12/18 06:25:27;;;;;;;13.63;1.77;;;;;;;9.40;100.00;101854.72;4983900;28;20041;-96
2023/12/18 06:28:01;;;;;;;13.05;1.95;;;;;;;9.36;100.00;101848.81;5021940;28;20037;-96
2023/12/18 06:33:04;;;;;;;12.32;1.92;;;;;;;9.32;100.00;101847.22;5502420;23;20285;-96
2023/12/18 06:35:33;;;;;;;10.98;1.38;;;;;;;9.37;100.00;101836.78;5017795;28;20042;-96
2023/12/18 06:50:55;;;;;;;13.30;1.98;;;;;;;9.48;100.00;101846.75;5415596;23;20042;-96
2023/12/18 06:55:59;;;;;;;6.78;1.33;;;;;;;9.60;100.00;101851.53;5901612;23;20028;-96
2023/12/18 07:01:16;;;;;;;8.07;1.40;;;;;;;9.72;100.00;101860.63;5180938;23;20419;-96
2023/12/18 07:03:45;;;;;;;15.52;2.50;;;;;;;9.64;100.00;101853.13;4999412;28;20030;-96
2023/12/18 07:06:10;;;;;;;6.32;1.60;;;;;;;9.59;100.00;101855.00;5232791;23;20511;-96
2023/12/18 07:08:36;;;;;;;11.30;2.25;;;;;;;9.58;100.00;101853.31;4994588;28;20025;-93
2023/12/18 07:11:01;;;;;;;11.98;1.88;;;;;;;9.57;100.00;101851.63;5011958;28;20030;-96
2023/12/18 07:13:26;;;;;;;10.13;1.67;;;;;;;9.60;100.00;101851.53;5011193;28;20424;-96
2023/12/18 07:15:52;;;;;;;4.78;1.00;;;;;;;9.58;100.00;101848.16;4994734;28;20018;-93
2023/12/18 07:18:17;;;;;;;16.60;1.70;;;;;;;9.51;100.00;101839.78;5015739;28;20030;-96
2023/12/18 07:23:10;;;;;;;11.48;2.17;;;;;;;9.50;100.00;101844.97;5013216;28;20041;-96
2023/12/18 07:25:37;;;;;;;12.50;2.17;;;;;;;9.58;100.00;101849.00;4997927;28;20026;-96
2023/12/18 07:28:07;;;;;;;6.72;1.55;;;;;;;9.54;100.00;101849.16;5019138;28;20454;-96
2023/12/18 07:30:33;;;;;;;6.43;1.15;;;;;;;9.56;100.00;101857.66;5010457;28;20026;-96
2023/12/18 07:32:59;;;;;;;10.98;2.10;;;;;;;9.59;100.00;101860.16;5008087;28;20048;-96
2023/12/18 07:35:24;;;;;;;13.93;1.42;;;;;;;9.58;100.00;101861.03;4999521;28;20361;-95
2023/12/18 07:37:49;;;;;;;9.15;1.20;;;;;;;9.63;100.00;101867.75;5013986;28;20176;-93
2023/12/18 07:40:15;;;;;;;8.90;2.15;;;;;;;9.63;100.00;101867.75;5015414;28;20030;-94
2023/12/18 07:42:40;;;;;;;9.00;2.03;;;;;;;9.68;100.00;101870.19;5015027;28;20033;-92
2023/12/18 07:45:06;;;;;;;9.77;1.33;;;;;;;9.71;100.00;101870.09;4995644;28;20022;-95
2023/12/18 07:47:31;;;;;;;8.98;1.33;;;;;;;9.63;100.00;101856.59;5014950;28;20052;-92
2023/12/18 07:49:56;;;;;;;6.95;1.10;;;;;;;9.62;100.00;101866.06;5014777;28;20022;-95
2023/12/18 07:52:22;;;;;;;13.50;1.63;;;;;;;9.71;100.00;101859.78;4996973;28;20038;-94
2023/12/18 07:54:47;;;;;;;10.63;1.23;;;;;;;9.67;100.00;101850.44;5014731;28;20049;-93
2023/12/18 07:57:12;;;;;;;12.90;1.45;;;;;;;9.60;100.00;101854.09;5014100;28;20045;-94
2023/12/18 07:59:39;;;;;;;6.90;1.30;;;;;;;9.65;100.00;101847.06;5013817;28;20036;-92
2023/12/18 08:02:08;;;;;;;7.72;1.20;;;;;;;9.69;100.00;101851.25;4997120;28;20112;-94
2023/12/18 08:04:34;;;;;;;6.45;1.08;;;;;;;9.79;100.00;101844.91;4996862;28;20101;-94
2023/12/18 08:06:59;;;;;;;7.75;1.50;;;;;;;9.78;100.00;101840.66;5014578;28;20094;-94
2023/12/18 08:09:26;;;;;;;7.82;1.50;;;;;;;9.69;100.00;101861.56;5014061;28;20101;-92
2023/12/18 08:11:52;;;;;;;8.25;1.48;;;;;;;9.75;100.00;101860.53;5013864;28;20137;-94
2023/12/18 08:14:17;;;;;;;7.22;1.15;;;;;;;9.75;100.00;101861.34;5013792;28;20038;-93
2023/12/18 08:16:43;;;;;;;8.80;2.03;;;;;;;9.75;100.00;101876.81;5014712;28;20034;-95
2023/12/18 08:19:08;;;;;;;10.52;1.50;;;;;;;9.73;100.00;101870.91;5013616;28;20022;-93
2023/12/18 08:21:33;;;;;;;4.47;1.27;;;;;;;9.76;100.00;101877.69;5013933;28;20033;-96
2023/12/18 08:23:59;;;;;;;9.20;1.25;;;;;;;9.76;100.00;101875.94;5014149;28;20032;-95
2023/12/18 08:26:29;;;;;;;11.13;2.35;;;;;;;9.77;100.00;101872.47;5015459;28;20060;-96
2023/12/18 08:28:58;;;;;;;9.27;1.23;;;;;;;9.75;100.00;101866.50;5020250;28;20022;-96
2023/12/18 08:31:39;;;;;;;5.53;1.15;;;;;;;9.77;100.00;101864.72;5014328;28;20044;-96
2023/12/18 08:36:41;;;;;;;4.68;1.10;;;;;;;9.78;100.00;101853.53;5039789;23;20045;-96
2023/12/18 08:39:08;;;;;;;11.20;1.48;;;;;;;9.86;100.00;101879.94;5054367;23;20832;-96
2023/12/18 08:41:46;;;;;;;7.07;1.58;;;;;;;9.81;100.00;101874.06;5369815;23;20038;-96
2023/12/18 08:44:11;;;;;;;4.50;0.85;;;;;;;9.77;100.00;101864.72;5412068;23;20056;-96
2023/12/18 08:46:38;;;;;;;9.90;0.98;;;;;;;9.86;100.00;101879.09;4999240;28;20034;-95
2023/12/18 08:49:03;;;;;;;8.73;1.17;;;;;;;9.85;100.00;101870.50;5012465;28;20535;-96
2023/12/18 08:51:28;;;;;;;6.68;1.55;;;;;;;9.82;100.00;101878.31;5012432;28;20026;-96
2023/12/18 08:53:54;;;;;;;8.75;1.58;;;;;;;9.88;100.00;101877.31;5000873;28;20017;-95
2023/12/18 08:56:20;;;;;;;10.43;2.33;;;;;;;9.93;100.00;101880.59;5001489;28;20037;-96
2023/12/18 08:58:46;;;;;;;9.65;1.10;;;;;;;9.94;100.00;101865.94;4976525;28;20022;-94
2023/12/18 09:01:11;;;;;;;9.55;1.30;;;;;;;9.89;100.00;101862.69;4976448;28;20124;-94
2023/12/18 09:03:36;;;;;;;11.40;2.40;;;;;;;9.94;100.00;101868.53;5019879;28;20058;-95
2023/12/18 09:06:02;;;;;;;5.35;1.55;;;;;;;9.98;100.00;101867.53;5002359;28;20534;-95
2023/12/18 09:08:39;;;;;;;8.75;1.38;;;;;;;10.02;100.00;101863.94;4991915;28;20018;-96
2023/12/18 09:11:06;;;;;;;5.10;0.95;;;;;;;10.02;100.00;101861.38;4992985;28;20092;-96
2023/12/18 09:13:33;;;;;;;11.07;1.25;;;;;;;10.08;100.00;101849.13;4985370;28;20149;-95
2023/12/18 09:15:58;;;;;;;13.52;1.70;;;;;;;10.03;100.00;101839.88;5001958;28;20388;-95
2023/12/18 09:18:24;;;;;;;10.95;2.10;;;;;;;10.00;100.00;101840.81;5028363;28;20026;-95
2023/12/18 09:20:49;;;;;;;5.50;1.77;;;;;;;10.05;100.00;101840.66;4990008;28;20025;-94
2023/12/18 09:23:15;;;;;;;9.65;1.20;;;;;;;10.11;100.00;101839.59;5015250;28;20049;-95
2023/12/18 09:25:41;;;;;;;10.13;2.65;;;;;;;10.14;100.00;101835.19;5016503;28;20026;-94
2023/12/18 09:28:06;;;;;;;14.80;3.00;;;;;;;10.09;100.00;101824.16;5007331;28;20061;-94
2023/12/18 09:30:31;;;;;;;11.23;1.85;;;;;;;10.16;100.00;101841.13;4991743;28;20496;-94
2023/12/18 09:32:57;;;;;;;8.40;1.40;;;;;;;10.10;100.00;101831.03;4997517;28;20065;-95
2023/12/18 09:35:22;;;;;;;8.90;1.42;;;;;;;10.20;100.00;101821.25;5000519;28;20409;-93
2023/12/18 09:37:47;;;;;;;4.82;1.02;;;;;;;10.23;100.00;101824.56;5005600;28;20069;-95
2023/12/18 09:40:13;;;;;;;7.20;1.10;;;;;;;10.32;100.00;101822.59;4992365;28;20030;-94
2023/12/18 09:42:39;;;;;;;4.75;0.95;;;;;;;10.40;100.00;101802.53;4996725;28;20034;-96
2023/12/18 09:45:07;;;;;;;10.20;1.08;;;;;;;10.43;100.00;101800.66;4991211;28;20061;-96
2023/12/18 09:47:32;;;;;;;6.30;1.25;;;;;;;10.37;100.00;101797.47;4998465;28;20077;-93
2023/12/18 09:49:58;;;;;;;7.82;2.17;;;;;;;10.47;100.00;101794.50;5014186;28;20030;-96
2023/12/18 09:52:28;;;;;;;7.55;1.58;;;;;;;10.61;100.00;101791.44;4998651;28;20084;-96
2023/12/18 09:54:54;;;;;;;8.95;1.60;;;;;;;10.57;100.00;101778.69;5002201;28;20022;-96
2023/12/18 09:57:20;;;;;;;10.77;1.60;;;;;;;10.58;100.00;101780.38;5000323;28;20153;-95
2023/12/18 09:59:46;;;;;;;9.02;1.30;;;;;;;10.51;100.00;101790.09;4996196;28;20495;-95
2023/12/18 10:02:12;;;;;;;13.90;1.85;;;;;;;10.51;100.00;101795.25;5009124;28;20033;-96
2023/12/18 10:04:41;;;;;;;6.53;1.38;;;;;;;10.39;100.00;101801.69;4987544;28;20029;-93
2023/12/18 10:07:07;;;;;;;8.73;1.45;;;;;;;10.38;100.00;101800.00;5006152;28;20078;-92
2023/12/18 10:09:35;;;;;;;6.43;1.33;;;;;;;10.52;100.00;101804.69;5025426;28;20033;-95
2023/12/18 10:12:03;;;;;;;10.98;1.73;;;;;;;10.46;100.00;101807.47;5022179;28;20030;-96
2023/12/18 10:14:28;;;;;;;5.68;1.20;;;;;;;10.48;100.00;101821.16;4995809;28;20018;-93
2023/12/18 10:16:55;;;;;;;7.07;1.50;;;;;;;10.44;100.00;101824.78;4987263;28;20037;-95
2023/12/18 10:19:24;;;;;;;15.25;2.05;;;;;;;10.43;100.00;101821.31;4991194;28;20114;-96
2023/12/18 10:21:50;;;;;;;12.45;1.80;;;;;;;10.47;100.00;101814.31;4999872;28;20018;-96
2023/12/18 10:24:16;;;;;;;12.90;2.50;;;;;;;10.59;100.00;101831.97;5018114;28;20025;-96
2023/12/18 10:26:41;;;;;;;19.27;2.20;;;;;;;10.70;100.00;101826.41;5012741;28;20026;-96
2023/12/18 10:29:07;;;;;;;12.95;2.15;;;;;;;10.60;100.00;101833.63;5014876;28;20320;-95
2023/12/18 10:31:34;;;;;;;13.98;2.10;;;;;;;10.67;100.00;101821.38;4987376;28;20046;-94
2023/12/18 10:34:05;;;;;;;13.88;2.28;;;;;;;10.68;100.00;101828.19;4987180;28;20399;-96
2023/12/18 10:36:33;;;;;;;13.20;1.60;;;;;;;10.60;100.00;101831.06;4994495;28;20030;-96
2023/12/18 10:39:00;;;;;;;15.25;2.88;;;;;;;10.68;100.00;101816.16;4993359;28;20030;-95
2023/12/18 10:41:28;;;;;;;7.45;1.60;;;;;;;10.63;100.00;101801.69;4988974;28;20109;-95
2023/12/18 10:43:55;;;;;;;13.23;1.73;;;;;;;10.67;100.00;101806.72;4994679;28;20022;-96
2023/12/18 10:46:24;;;;;;;16.05;1.95;;;;;;;10.69;100.00;101799.75;4990378;28;20023;-96
2023/12/18 10:48:52;;;;;;;14.20;2.30;;;;;;;10.67;100.00;101801.53;4978115;28;20022;-96
2023/12/18 10:51:22;;;;;;;12.23;1.75;;;;;;;10.79;100.00;101789.94;4989784;28;20030;-96
2023/12/18 10:53:48;;;;;;;12.68;1.63;;;;;;;10.69;100.00;101797.16;5002663;28;20029;-95
2023/12/18 10:56:19;;;;;;;14.05;2.03;;;;;;;10.70;100.00;101779.94;5221841;23;20035;-96
2023/12/18 10:58:47;;;;;;;16.33;2.22;;;;;;;10.78;100.00;101769.31;4992513;28;20034;-95
2023/12/18 11:01:15;;;;;;;9.23;1.58;;;;;;;10.94;100.00;101754.94;4994822;28;20034;-94
2023/12/18 11:03:40;;;;;;;12.13;1.80;;;;;;;10.88;100.00;101761.19;4998618;28;20037;-95
2023/12/18 11:06:07;;;;;;;16.75;2.03;;;;;;;10.97;100.00;101744.47;4997959;28;20027;-96
2023/12/18 11:08:33;;;;;;;9.85;2.42;;;;;;;10.97;100.00;101721.22;5010550;23;20038;-96
2023/12/18 11:11:02;;;;;;;13.77;2.53;;;;;;;11.10;100.00;101727.63;5001437;28;20080;-93
2023/12/18 11:13:29;;;;;;;15.07;2.28;;;;;;;11.05;100.00;101708.88;4983818;28;20064;-93
2023/12/18 11:16:23;;;;;;;22.77;2.40;;;;;;;11.08;100.00;101734.59;4982173;28;20030;-94
2023/12/18 11:19:20;;;;;;;21.75;2.38;;;;;;;11.10;100.00;101719.88;5003180;28;20033;-93
2023/12/18 11:21:49;;;;;;;17.58;2.05;;;;;;;11.09;100.00;101713.00;4994048;28;20025;-93
2023/12/18 11:24:16;;;;;;;15.02;2.25;;;;;;;11.18;100.00;101708.41;4994817;28;20065;-95
2023/12/18 11:26:45;;;;;;;7.88;2.50;;;;;;;11.19;100.00;101710.91;4996471;28;20717;-95
2023/12/18 11:29:38;;;;;;;13.07;2.38;;;;;;;11.20;100.00;101707.44;4984586;28;20448;-95
2023/12/18 11:32:04;;;;;;;11.70;1.60;;;;;;;11.28;100.00;101704.53;4992200;28;20526;-96
2023/12/18 11:34:29;;;;;;;9.77;2.30;;;;;;;11.13;100.00;101688.72;4996712;28;20117;-95
2023/12/18 11:36:54;;;;;;;14.02;1.90;;;;;;;11.07;100.00;101683.81;4995334;28;20045;-94
2023/12/18 11:39:36;;;;;;;21.33;3.30;;;;;;;11.26;100.00;101690.81;5015353;28;20022;-95
2023/12/18 11:42:12;;;;;;;13.65;2.20;;;;;;;11.34;100.00;101688.78;5013807;28;20038;-96
2023/12/18 11:44:38;;;;;;;23.75;2.58;;;;;;;11.33;100.00;101692.25;5016916;28;20026;-96
2023/12/18 11:47:05;;;;;;;14.75;2.25;;;;;;;11.25;100.00;101695.16;4986588;28;20088;-96
2023/12/18 11:49:32;;;;;;;14.52;3.33;;;;;;;11.20;100.00;101699.69;4988039;28;20038;-96
2023/12/18 11:51:58;;;;;;;13.02;2.40;;;;;;;11.19;100.00;101710.06;5147835;23;20049;-95
2023/12/18 11:54:26;;;;;;;9.48;1.67;;;;;;;11.25;100.00;101715.00;5009002;28;20034;-96
2023/12/18 11:56:51;;;;;;;7.93;1.58;;;;;;;11.18;100.00;101708.41;5006254;28;20049;-96
2023/12/18 12:02:13;;;;;;;10.57;3.50;;;;;;;11.09;100.00;101704.41;4969278;28;20038;-94
2023/12/18 12:04:41;;;;;;;8.80;2.58;;;;;;;11.18;100.00;101703.22;4980024;28;20026;-96
2023/12/18 12:07:12;;;;;;;15.30;2.28;;;;;;;11.02;100.00;101690.91;4993414;28;20033;-96
2023/12/18 12:22:42;;;;;;;12.10;1.73;;;;;;;11.03;100.00;101678.84;5629119;22;20041;-96
2023/12/18 12:25:07;;;;;;;16.88;2.20;;;;;;;11.10;100.00;101660.44;4995324;28;20048;-96
2023/12/18 12:27:33;;;;;;;14.45;3.05;;;;;;;11.17;100.00;101647.25;4997312;28;20124;-96
2023/12/18 12:29:59;;;;;;;15.35;1.90;;;;;;;11.17;100.00;101655.00;5004176;28;20140;-96
2023/12/18 12:32:25;;;;;;;15.93;2.42;;;;;;;11.09;100.00;101643.25;5002092;28;20076;-96
2023/12/18 12:34:50;;;;;;;18.33;3.70;;;;;;;11.19;100.00;101641.13;5000316;28;20492;-96
2023/12/18 12:37:19;;;;;;;18.80;2.97;;;;;;;11.27;100.00;101648.59;5000504;28;20049;-96
2023/12/18 12:39:58;;;;;;;14.85;2.65;;;;;;;11.25;100.00;101650.41;5015908;28;20051;-96
2023/12/18 12:55:19;;;;;;;12.13;2.17;;;;;;;11.40;100.00;101631.66;5617141;23;20053;-96
2023/12/18 12:57:45;;;;;;;18.40;3.03;;;;;;;11.48;100.00;101624.41;5001234;28;20624;-95
2023/12/18 13:00:18;;;;;;;13.90;2.35;;;;;;;11.41;100.00;101623.00;4994607;28;20034;-96
2023/12/18 13:02:45;;;;;;;18.52;2.58;;;;;;;11.43;100.00;101621.19;5148896;22;20045;-96
2023/12/18 13:10:25;;;;;;;17.20;2.88;;;;;;;11.53;100.00;101606.97;5151661;23;20089;-96
2023/12/18 13:15:26;;;;;;;13.50;2.53;;;;;;;11.53;100.00;101601.81;4974422;28;20401;-96
2023/12/18 13:17:51;;;;;;;16.08;2.25;;;;;;;11.62;100.00;101615.25;4974644;28;20035;-96
2023/12/18 13:20:18;;;;;;;16.45;2.70;;;;;;;11.67;100.00;101618.47;4962210;28;20027;-96
2023/12/18 13:22:44;;;;;;;13.27;4.20;;;;;;;11.66;100.00;101621.97;4977163;28;20026;-94
2023/12/18 13:25:12;;;;;;;14.23;2.17;;;;;;;11.62;100.00;101616.06;5075240;23;20053;-96
2023/12/18 13:27:38;;;;;;;15.05;2.60;;;;;;;11.57;100.00;101608.50;4993831;28;20022;-96
2023/12/18 13:32:41;;;;;;;22.25;4.65;;;;;;;11.60;100.00;101606.69;5103545;23;20042;-96
2023/12/18 13:35:09;;;;;;;17.30;2.55;;;;;;;11.64;100.00;101603.09;5147219;23;20072;-96
2023/12/18 13:42:46;;;;;;;16.08;2.13;;;;;;;11.62;100.00;101597.97;5995119;23;21152;-96
2023/12/18 13:45:12;;;;;;;15.55;2.47;;;;;;;11.53;100.00;101600.94;5538376;23;20045;-96
2023/12/18 13:47:38;;;;;;;21.65;2.65;;;;;;;11.61;100.00;101604.06;5154506;23;20033;-96
2023/12/18 13:50:04;;;;;;;22.25;2.78;;;;;;;11.82;100.00;101594.50;4990245;28;20038;-95
2023/12/18 13:52:29;;;;;;;16.25;2.78;;;;;;;11.79;100.00;101586.91;4993625;28;20172;-96